Terminal Aerodrome Forecast
Issued by NWS Jackson, MS

Home | Current Version | Previous Version | Text Only | Print | Product List | Glossary On
Versions: 1 2 3 4 5 6 7 8 9 10 11 12 13
000
FTUS44 KJAN 291900 AAA
TAFHBG
TAF AMD
KHBG 291929Z 2919/3018 23012G24KT P6SM SCT100 BKN250
     FM300100 33004KT P6SM OVC050
     FM300600 34009KT P6SM OVC025
     FM300900 01007KT P6SM OVC100
     FM301500 02007KT P6SM SKC=

USA.gov is the U.S. government's official web portal to all federal, state and local government web resources and services.